This is the latest recevied weather packets stored in our database for station/object KC3HIX. If no packets are shown the sender has not sent any weather packets the latest 10 day(s).
| Time | Temp. | Humidity | Pressure | Rain* | Wind** | Luminosity | Snow |
|---|---|---|---|---|---|---|---|
| 1777601406 | 8.89° C | 91% | 1013.4 hPa | 0 mm | - | - | - |
| 1777600506 | 8.89° C | 91% | 1013.4 hPa | 0 mm | - | - | - |
| 1777599906 | 8.89° C | 91% | 1013.4 hPa | 0 mm | - | - | - |
| 1777599306 | 8.89° C | 92% | 1013 hPa | 0 mm | - | - | - |
| 1777598106 | 8.89° C | 91% | 1012.7 hPa | 0 mm | - | - | - |
| 1777589705 | 11.11° C | 92% | 1010.6 hPa | 2.79 mm | - | - | - |
| 1777587605 | 11.11° C | 94% | 1010.3 hPa | 1.02 mm | - | - | - |
| 1777587305 | 11.11° C | 94% | 1010.3 hPa | 1.52 mm | - | - | - |
| 1777586105 | 11.11° C | 92% | 1010.3 hPa | 1.78 mm | - | - | - |
| 1777585505 | 11.11° C | 92% | 1009.9 hPa | 2.03 mm | - | - | - |
| 1777585226 | 11.11° C | 92% | 1009.9 hPa | 1.78 mm | - | - | - |
| 1777584605 | 11.11° C | 90% | 1009.9 hPa | 1.78 mm | - | - | - |
| 1777583105 | 12.22° C | 90% | 1009.3 hPa | 1.27 mm | - | - | - |
| 1777582526 | 12.22° C | 89% | 1008.9 hPa | 1.52 mm | - | - | - |
| 1777582205 | 12.22° C | 89% | 1008.9 hPa | 2.29 mm | - | - | - |
| 1777580404 | 12.78° C | 84% | 1008.6 hPa | 2.29 mm | - | - | - |
| 1777579804 | 12.78° C | 84% | 1008.6 hPa | 2.29 mm | - | - | - |
| 1777579205 | 13.33° C | 82% | 1008.2 hPa | 1.78 mm | - | - | - |
| 1777578305 | 15.56° C | 60% | 1007.9 hPa | 0.25 mm | - | - | - |
| 1777578004 | 16.67° C | 52% | 1007.9 hPa | 0 mm | - | - | - |
| 1777577704 | 16.67° C | 50% | 1007.9 hPa | 0 mm | - | - | - |
| 1777577404 | 17.22° C | 53% | 1007.9 hPa | 0 mm | - | - | - |
| 1777576804 | 17.22° C | 53% | 1007.9 hPa | 0 mm | - | - | - |
| 1777573504 | 18.33° C | 52% | 1008.2 hPa | 0 mm | - | - | - |
| 1777569004 | 17.22° C | 56% | 1008.6 hPa | 0 mm | - | - | - |
* Rain latest hour (hover to see other rain measurements)
** Current wind speed in m/s (hover to see current wind gust speed)